createdAt,value
2019-04-27T00:00:46.899Z,7.80
2019-04-27T00:03:19.429Z,8.27
2019-04-27T00:05:56.123Z,8.03
2019-04-27T00:08:39.215Z,8.48
2019-04-27T00:11:13.630Z,8.70
2019-04-27T00:13:43.943Z,9.87
2019-04-27T00:16:33.745Z,9.20
2019-04-27T00:19:20.997Z,7.83
2019-04-27T00:22:08.055Z,9.10
2019-04-27T00:24:37.420Z,7.77
2019-04-27T00:27:06.774Z,8.30
2019-04-27T00:29:36.028Z,8.87
2019-04-27T00:32:05.890Z,9.17
2019-04-27T00:34:35.227Z,8.40
2019-04-27T00:37:25.451Z,8.87
2019-04-27T00:40:04.392Z,8.87
2019-04-27T00:42:35.607Z,8.87
2019-04-27T00:45:05.913Z,10.00
2019-04-27T00:47:35.262Z,10.40
2019-04-27T00:50:05.218Z,10.07
2019-04-27T00:52:34.909Z,10.10
2019-04-27T00:55:04.430Z,10.47
2019-04-27T00:57:59.014Z,9.93
2019-04-27T01:00:47.473Z,9.80
2019-04-27T01:03:23.635Z,9.20
2019-04-27T01:05:53.199Z,9.63
2019-04-27T01:08:23.013Z,9.43
2019-04-27T01:10:53.778Z,8.80
2019-04-27T01:13:23.129Z,8.60
2019-04-27T01:15:54.044Z,9.60
2019-04-27T01:18:23.339Z,10.37
2019-04-27T01:20:52.610Z,9.40
2019-04-27T01:23:21.931Z,9.77
2019-04-27T01:26:09.762Z,10.43
2019-04-27T01:28:45.534Z,9.70
2019-04-27T01:31:15.254Z,9.73
2019-04-27T01:33:44.499Z,9.23
2019-04-27T01:36:13.733Z,9.43
2019-04-27T01:38:43.045Z,9.23
2019-04-27T01:41:12.291Z,8.93
2019-04-27T01:43:41.563Z,9.23
2019-04-27T01:46:11.291Z,8.33
2019-04-27T01:48:40.604Z,8.97
2019-04-27T01:51:09.911Z,8.30
2019-04-27T01:53:39.279Z,8.17
2019-04-27T01:56:09.211Z,8.47
2019-04-27T01:58:39.348Z,8.37
2019-04-27T02:01:34.155Z,8.20
2019-04-27T02:04:19.204Z,8.37
2019-04-27T02:06:50.531Z,8.57
2019-04-27T02:09:20.945Z,8.60
2019-04-27T02:11:50.246Z,8.63
2019-04-27T02:14:19.706Z,7.70
2019-04-27T02:16:49.338Z,7.70
2019-04-27T02:19:19.415Z,8.33
2019-04-27T02:21:51.117Z,8.60
2019-04-27T02:24:19.897Z,8.30
2019-04-27T02:26:49.715Z,7.97
2019-04-27T02:29:29.205Z,7.47
2019-04-27T02:32:10.495Z,8.17
2019-04-27T02:35:00.100Z,7.97
2019-04-27T02:37:30.440Z,8.93
2019-04-27T02:40:00.425Z,7.43
2019-04-27T02:42:35.412Z,7.63
2019-04-27T02:45:05.283Z,7.97
2019-04-27T02:47:35.100Z,7.93
2019-04-27T02:50:04.436Z,7.30
2019-04-27T02:52:40.444Z,7.53
2019-04-27T02:55:09.816Z,8.27
2019-04-27T02:57:39.923Z,7.53
2019-04-27T03:00:10.609Z,8.00
2019-04-27T03:02:54.323Z,7.53
2019-04-27T03:05:26.781Z,8.00
2019-04-27T03:07:59.685Z,7.73
2019-04-27T03:10:31.304Z,10.60
2019-04-27T03:13:20.175Z,7.63
2019-04-27T03:16:23.791Z,7.20
2019-04-27T03:19:18.174Z,7.47
2019-04-27T03:22:02.448Z,7.73
2019-04-27T03:24:49.902Z,7.90
2019-04-27T03:27:21.356Z,7.70
2019-04-27T03:29:50.707Z,7.00
2019-04-27T03:32:22.665Z,7.20
2019-04-27T03:34:52.480Z,7.63
2019-04-27T03:37:21.865Z,7.43
2019-04-27T03:39:51.156Z,7.43
2019-04-27T03:42:20.902Z,8.10
2019-04-27T03:44:50.591Z,7.50
2019-04-27T03:47:20.093Z,7.47
2019-04-27T03:49:50.637Z,7.37
2019-04-27T03:52:32.402Z,7.40
2019-04-27T03:55:26.941Z,8.07
2019-04-27T03:58:02.087Z,7.10
2019-04-27T04:00:31.442Z,6.97
2019-04-27T04:03:00.793Z,7.60
2019-04-27T04:05:30.241Z,8.07
2019-04-27T04:08:00.452Z,8.00
2019-04-27T04:10:31.720Z,8.13
2019-04-27T04:13:06.492Z,6.87
2019-04-27T04:15:42.577Z,7.07
2019-04-27T04:18:11.914Z,7.10
2019-04-27T04:20:41.138Z,7.50
2019-04-27T04:23:10.815Z,7.10
2019-04-27T04:25:40.992Z,7.43
2019-04-27T04:28:10.538Z,7.30
2019-04-27T04:30:40.397Z,8.40
2019-04-27T04:33:10.457Z,7.43
2019-04-27T04:35:40.152Z,7.43
2019-04-27T04:38:10.344Z,7.87
2019-04-27T04:40:45.755Z,7.23
2019-04-27T04:43:39.778Z,7.03
2019-04-27T04:46:40.261Z,7.03
2019-04-27T04:49:09.640Z,7.27
2019-04-27T04:51:40.202Z,7.33
2019-04-27T04:54:09.647Z,7.77
2019-04-27T04:56:39.353Z,7.20
2019-04-27T04:59:10.117Z,7.03
2019-04-27T05:01:40.001Z,7.00
2019-04-27T05:04:09.412Z,7.33
2019-04-27T05:06:39.045Z,7.10
2019-04-27T05:09:09.298Z,6.97
2019-04-27T05:11:39.611Z,6.80
2019-04-27T05:14:09.829Z,6.97
2019-04-27T05:16:39.201Z,6.87
2019-04-27T05:19:11.032Z,7.20
2019-04-27T05:21:39.310Z,7.00
2019-04-27T05:24:09.364Z,7.00
2019-04-27T05:26:39.702Z,6.87
2019-04-27T05:29:09.304Z,7.30
2019-04-27T05:31:38.948Z,7.20
2019-04-27T05:34:09.527Z,7.03
2019-04-27T05:36:41.825Z,6.90
2019-04-27T05:39:13.067Z,8.10
2019-04-27T05:41:41.743Z,8.03
2019-04-27T05:44:33.079Z,8.23
2019-04-27T05:47:18.945Z,8.37
2019-04-27T05:49:52.080Z,7.90
2019-04-27T05:52:29.494Z,8.33
2019-04-27T05:54:59.367Z,8.70
2019-04-27T05:57:31.471Z,9.00
2019-04-27T06:00:02.212Z,9.03
2019-04-27T06:02:31.530Z,9.50
2019-04-27T06:05:00.849Z,10.57
2019-04-27T06:07:30.202Z,11.10
2019-04-27T06:10:00.025Z,10.83
2019-04-27T06:12:29.925Z,11.00
2019-04-27T06:15:00.167Z,10.57
2019-04-27T06:17:30.184Z,11.07
2019-04-27T06:19:59.967Z,11.30
2019-04-27T06:22:30.371Z,10.60
2019-04-27T06:25:00.382Z,10.83
2019-04-27T06:27:30.607Z,11.50
2019-04-27T06:30:00.754Z,12.13
2019-04-27T06:32:30.638Z,11.73
2019-04-27T06:35:00.119Z,11.70
2019-04-27T06:37:31.211Z,12.57
2019-04-27T06:40:00.998Z,12.10
2019-04-27T06:42:31.294Z,13.30
2019-04-27T06:45:01.907Z,13.53
2019-04-27T06:47:31.338Z,12.90
2019-04-27T06:50:00.825Z,13.63
2019-04-27T06:52:30.278Z,13.40
2019-04-27T06:55:00.658Z,13.77
2019-04-27T06:57:30.218Z,12.90
2019-04-27T06:59:59.655Z,11.87
2019-04-27T07:02:29.257Z,13.90
2019-04-27T07:05:02.963Z,13.97
2019-04-27T07:07:32.497Z,14.27
2019-04-27T07:10:01.969Z,16.47
2019-04-27T07:12:31.443Z,15.03
2019-04-27T07:15:00.999Z,16.33
2019-04-27T07:17:30.710Z,17.53
2019-04-27T07:20:00.200Z,16.80
2019-04-27T07:22:30.098Z,18.87
2019-04-27T07:24:59.542Z,17.63
2019-04-27T07:27:31.314Z,18.60
2019-04-27T07:30:01.832Z,20.73
2019-04-27T07:32:31.485Z,22.37
2019-04-27T07:35:00.943Z,22.47
2019-04-27T07:37:30.424Z,24.93
2019-04-27T07:40:00.277Z,23.30
2019-04-27T07:42:32.203Z,24.40
2019-04-27T07:45:09.374Z,24.80
2019-04-27T07:47:42.439Z,24.50
2019-04-27T07:50:11.844Z,24.33
2019-04-27T07:52:41.597Z,22.97
2019-04-27T07:55:12.241Z,21.87
2019-04-27T07:57:42.497Z,20.23
2019-04-27T08:00:14.516Z,20.87
2019-04-27T08:02:48.645Z,22.37
2019-04-27T08:05:24.876Z,21.93
2019-04-27T08:07:56.280Z,21.10
2019-04-27T08:10:29.203Z,24.37
2019-04-27T08:13:02.077Z,23.97
2019-04-27T08:15:32.286Z,22.67
2019-04-27T08:18:04.438Z,22.87
2019-04-27T08:20:34.990Z,21.60
2019-04-27T08:23:05.848Z,26.00
2019-04-27T08:25:36.035Z,24.07
2019-04-27T08:28:30.455Z,23.30
2019-04-27T08:31:08.963Z,25.83
2019-04-27T08:33:38.947Z,27.80
2019-04-27T08:36:14.901Z,26.30
2019-04-27T08:38:44.391Z,24.47
2019-04-27T08:41:14.734Z,23.67
2019-04-27T08:43:45.181Z,27.93
2019-04-27T08:46:14.718Z,34.07
2019-04-27T08:48:45.759Z,33.07
2019-04-27T08:51:16.461Z,30.40
2019-04-27T08:53:47.143Z,28.77
2019-04-27T08:56:19.371Z,30.23
2019-04-27T08:58:51.070Z,31.37
2019-04-27T09:01:21.299Z,31.10
2019-04-27T09:03:52.065Z,31.10
2019-04-27T09:06:22.508Z,32.43
2019-04-27T09:08:59.287Z,28.87
2019-04-27T09:11:53.511Z,28.57
2019-04-27T09:14:31.170Z,29.50
2019-04-27T09:17:19.732Z,28.50
2019-04-27T09:20:13.223Z,28.77
2019-04-27T09:22:43.278Z,29.60
2019-04-27T09:25:13.022Z,28.70
2019-04-27T09:27:42.993Z,26.23
2019-04-27T09:30:13.352Z,24.43
2019-04-27T09:32:43.840Z,24.53
2019-04-27T09:35:15.835Z,24.30
2019-04-27T09:37:48.561Z,24.77
2019-04-27T09:40:20.013Z,25.00
2019-04-27T09:42:50.676Z,23.70
2019-04-27T09:45:21.598Z,25.30
2019-04-27T09:47:51.503Z,23.17
2019-04-27T09:50:23.169Z,24.37
2019-04-27T09:52:53.085Z,24.27
2019-04-27T09:55:22.934Z,22.77
2019-04-27T09:57:52.784Z,22.60
2019-04-27T10:00:24.962Z,22.83
2019-04-27T10:02:56.442Z,24.03
2019-04-27T10:05:26.762Z,24.47
2019-04-27T10:07:58.893Z,25.37
2019-04-27T10:10:29.792Z,23.87
2019-04-27T10:12:59.539Z,24.30
2019-04-27T10:15:30.684Z,22.33
2019-04-27T10:18:06.947Z,23.63
2019-04-27T10:20:41.210Z,23.63
2019-04-27T10:23:12.344Z,22.87
2019-04-27T10:25:47.951Z,21.77
2019-04-27T10:28:21.542Z,22.43
2019-04-27T10:30:52.059Z,21.37
2019-04-27T10:33:25.848Z,21.60
2019-04-27T10:35:56.613Z,22.70
2019-04-27T10:38:30.041Z,23.33
2019-04-27T10:41:07.798Z,21.37
2019-04-27T10:43:40.282Z,22.10
2019-04-27T10:50:01.618Z,20.80
2019-04-27T10:52:35.080Z,21.50
2019-04-27T10:55:06.486Z,19.90
2019-04-27T10:58:03.658Z,21.07
2019-04-27T11:00:40.110Z,20.27
2019-04-27T11:03:11.276Z,20.77
2019-04-27T11:06:03.191Z,20.27
2019-04-27T11:08:33.046Z,21.90
2019-04-27T11:11:03.014Z,22.17
2019-04-27T11:13:38.236Z,21.50
2019-04-27T11:16:13.851Z,22.80
2019-04-27T11:18:43.756Z,23.10
2019-04-27T11:21:28.771Z,23.53
2019-04-27T11:23:58.703Z,24.97
2019-04-27T11:26:27.973Z,24.73
2019-04-27T11:28:57.403Z,24.77
2019-04-27T11:31:26.864Z,25.07
2019-04-27T11:33:56.893Z,25.53
2019-04-27T11:36:37.929Z,24.50
2019-04-27T11:39:13.420Z,25.33
2019-04-27T11:41:42.675Z,26.77
2019-04-27T11:44:12.079Z,25.53
2019-04-27T11:46:41.778Z,30.57
2019-04-27T11:49:11.149Z,36.70
2019-04-27T11:51:40.491Z,54.63
2019-04-27T11:54:12.077Z,26.30
2019-04-27T11:56:41.385Z,26.37
2019-04-27T11:59:10.643Z,27.07
2019-04-27T12:01:39.974Z,27.87
2019-04-27T12:04:09.369Z,28.50
2019-04-27T12:06:38.732Z,28.83
2019-04-27T12:09:09.435Z,26.90
2019-04-27T12:11:39.349Z,27.40
2019-04-27T12:14:08.722Z,26.03
2019-04-27T12:16:39.704Z,24.73
2019-04-27T12:19:09.305Z,24.40
2019-04-27T12:21:39.118Z,26.40
2019-04-27T12:24:08.858Z,26.30
2019-04-27T12:26:48.474Z,24.80
2019-04-27T12:29:21.102Z,23.27
2019-04-27T12:31:52.035Z,23.87
2019-04-27T12:34:22.715Z,24.27
2019-04-27T12:36:53.539Z,24.37
2019-04-27T12:39:23.053Z,25.07
2019-04-27T12:41:52.448Z,25.50
2019-04-27T12:44:21.790Z,25.67
2019-04-27T12:46:51.711Z,27.30
2019-04-27T12:49:21.060Z,28.60
2019-04-27T12:51:50.447Z,29.27
2019-04-27T12:54:31.598Z,29.83
2019-04-27T12:57:31.373Z,30.13
2019-04-27T13:00:06.540Z,27.33
2019-04-27T13:02:35.969Z,26.53
2019-04-27T13:05:05.788Z,25.90
2019-04-27T13:07:35.159Z,24.33
2019-04-27T13:10:05.699Z,23.23
2019-04-27T13:12:36.719Z,18.50
2019-04-27T13:15:09.934Z,17.87
2019-04-27T13:17:39.290Z,17.73
2019-04-27T13:20:08.873Z,21.63
2019-04-27T13:22:38.259Z,19.83
2019-04-27T13:25:08.011Z,18.80
2019-04-27T13:27:37.445Z,20.67
2019-04-27T13:30:08.553Z,20.73
2019-04-27T13:32:37.926Z,20.73
2019-04-27T13:35:07.670Z,21.23
2019-04-27T13:37:41.724Z,20.93
2019-04-27T13:40:13.191Z,21.23
2019-04-27T13:42:53.564Z,22.17
2019-04-27T13:45:31.478Z,64.90
2019-04-27T13:48:31.971Z,26.30
2019-04-27T13:51:02.929Z,24.97
2019-04-27T13:53:32.237Z,24.00
2019-04-27T13:56:03.239Z,23.53
2019-04-27T13:58:32.503Z,23.37
2019-04-27T14:01:01.852Z,24.73
2019-04-27T14:03:31.201Z,25.43
2019-04-27T14:06:01.158Z,21.40
2019-04-27T14:08:30.890Z,20.73
2019-04-27T14:11:01.250Z,20.47
2019-04-27T14:13:30.825Z,21.47
2019-04-27T14:16:00.077Z,21.30
2019-04-27T14:18:29.423Z,20.77
2019-04-27T14:20:59.247Z,29.47
2019-04-27T14:23:30.675Z,18.13
2019-04-27T14:26:00.416Z,21.20
2019-04-27T14:28:29.954Z,23.03
2019-04-27T14:30:59.312Z,21.03
2019-04-27T14:33:28.581Z,23.13
2019-04-27T14:35:59.417Z,19.47
2019-04-27T14:38:28.816Z,20.27
2019-04-27T14:40:59.368Z,20.13
2019-04-27T14:43:28.714Z,19.63
2019-04-27T14:45:58.394Z,21.17
2019-04-27T14:48:29.315Z,19.13
2019-04-27T14:50:59.090Z,18.50
2019-04-27T14:53:29.161Z,17.63
2019-04-27T14:55:58.577Z,24.60
2019-04-27T14:58:28.317Z,20.63
2019-04-27T15:00:58.497Z,16.30
2019-04-27T15:03:28.102Z,15.73
2019-04-27T15:05:57.607Z,15.67
2019-04-27T15:08:26.863Z,14.60
2019-04-27T15:10:56.346Z,13.83
2019-04-27T15:13:25.687Z,15.00
2019-04-27T15:15:55.033Z,16.50
2019-04-27T15:18:29.584Z,15.90
2019-04-27T15:20:58.498Z,14.20
2019-04-27T15:23:30.853Z,62.00
2019-04-27T15:26:00.402Z,14.80
2019-04-27T15:28:35.342Z,15.20
2019-04-27T15:31:29.390Z,15.10
2019-04-27T15:34:17.063Z,14.73
2019-04-27T15:37:12.552Z,16.30
2019-04-27T15:40:12.623Z,19.73
2019-04-27T15:42:53.259Z,20.43
2019-04-27T15:45:25.319Z,22.77
2019-04-27T15:47:59.956Z,22.40
2019-04-27T15:50:32.180Z,22.43
2019-04-27T15:53:02.884Z,24.07
2019-04-27T15:55:35.105Z,23.30
2019-04-27T15:58:02.375Z,21.27
2019-04-27T16:00:31.963Z,23.97
2019-04-27T16:03:01.581Z,23.53
2019-04-27T16:05:33.354Z,24.97
2019-04-27T16:08:06.246Z,20.60
2019-04-27T16:10:37.301Z,22.60
2019-04-27T16:13:06.869Z,19.27
2019-04-27T16:15:35.592Z,22.83
2019-04-27T16:18:05.003Z,21.07
2019-04-27T16:20:34.413Z,22.63
2019-04-27T16:23:04.406Z,24.73
2019-04-27T16:25:46.120Z,22.70
2019-04-27T16:28:09.686Z,25.40
2019-04-27T16:30:35.847Z,27.20
2019-04-27T16:33:05.550Z,26.60
2019-04-27T16:35:34.897Z,47.17
2019-04-27T16:38:15.468Z,36.93
2019-04-27T16:40:44.799Z,30.13
2019-04-27T16:43:14.110Z,29.43
2019-04-27T16:45:43.486Z,28.07
2019-04-27T16:48:12.818Z,27.50
2019-04-27T16:50:42.130Z,29.93
2019-04-27T16:53:12.604Z,27.17
2019-04-27T16:55:42.023Z,27.27
2019-04-27T16:58:16.035Z,34.83
2019-04-27T17:00:42.839Z,36.83
2019-04-27T17:03:12.137Z,30.83
2019-04-27T17:05:41.323Z,30.00
2019-04-27T17:08:13.929Z,45.27
2019-04-27T17:10:41.737Z,39.87
2019-04-27T17:13:14.560Z,29.40
2019-04-27T17:16:01.324Z,28.67
2019-04-27T17:19:02.331Z,29.30
2019-04-27T17:21:28.482Z,29.60
2019-04-27T17:24:02.760Z,31.40
2019-04-27T17:26:29.261Z,27.50
2019-04-27T17:29:10.959Z,29.27
2019-04-27T17:31:41.700Z,32.20
2019-04-27T17:34:10.992Z,35.20
2019-04-27T17:36:40.376Z,29.47
2019-04-27T17:39:11.616Z,32.13
2019-04-27T17:41:42.097Z,31.87
2019-04-27T17:44:12.673Z,30.30
2019-04-27T17:46:47.055Z,33.87
2019-04-27T17:49:13.748Z,40.83
2019-04-27T17:51:44.339Z,30.70
2019-04-27T17:54:13.762Z,35.03
2019-04-27T17:56:48.811Z,35.37
2019-04-27T17:59:17.317Z,27.60
2019-04-27T18:01:45.046Z,26.57
2019-04-27T18:04:14.416Z,30.17
2019-04-27T18:06:43.911Z,30.87
2019-04-27T18:09:18.786Z,37.37
2019-04-27T18:11:50.331Z,29.37
2019-04-27T18:14:19.432Z,29.80
2019-04-27T18:16:48.784Z,26.77
2019-04-27T18:19:23.501Z,22.33
2019-04-27T18:22:00.859Z,22.23
2019-04-27T18:24:34.994Z,22.20
2019-04-27T18:27:12.676Z,22.00
2019-04-27T18:29:42.549Z,28.53
2019-04-27T18:32:11.869Z,28.80
2019-04-27T18:34:41.188Z,27.50
2019-04-27T18:37:10.689Z,22.33
2019-04-27T18:39:45.338Z,25.50
2019-04-27T18:42:13.683Z,25.67
2019-04-27T18:44:43.020Z,23.47
2019-04-27T18:47:12.336Z,20.57
2019-04-27T18:50:10.882Z,26.27
2019-04-27T18:52:47.546Z,28.57
2019-04-27T18:55:16.603Z,22.93
2019-04-27T18:57:45.885Z,22.47
2019-04-27T19:00:18.269Z,19.33
2019-04-27T19:02:48.250Z,20.97
2019-04-27T19:05:18.822Z,21.27
2019-04-27T19:07:48.555Z,22.60
2019-04-27T19:10:19.226Z,20.03
2019-04-27T19:12:48.655Z,21.97
2019-04-27T19:15:18.427Z,19.13
2019-04-27T19:17:48.959Z,19.73
2019-04-27T19:20:18.796Z,20.43
2019-04-27T19:22:49.069Z,21.07
2019-04-27T19:25:28.803Z,21.40
2019-04-27T19:28:20.157Z,21.43
2019-04-27T19:30:53.802Z,21.17
2019-04-27T19:33:23.071Z,19.93
2019-04-27T19:35:52.313Z,21.00
2019-04-27T19:38:21.970Z,20.97
2019-04-27T19:40:51.231Z,20.90
2019-04-27T19:43:20.553Z,21.03
2019-04-27T19:45:49.931Z,23.47
2019-04-27T19:48:19.170Z,39.03
2019-04-27T19:50:50.424Z,32.57
2019-04-27T19:53:19.492Z,25.57
2019-04-27T19:56:03.950Z,26.30
2019-04-27T19:58:46.940Z,21.10
2019-04-27T20:01:24.198Z,21.13
2019-04-27T20:04:01.360Z,20.40
2019-04-27T20:06:30.742Z,20.03
2019-04-27T20:09:01.759Z,20.37
2019-04-27T20:11:31.489Z,20.67
2019-04-27T20:14:00.882Z,21.00
2019-04-27T20:16:31.750Z,21.53
2019-04-27T20:19:01.489Z,24.97
2019-04-27T20:21:30.992Z,22.90
2019-04-27T20:24:01.738Z,23.90
2019-04-27T20:26:31.048Z,24.37
2019-04-27T20:29:01.502Z,23.13
2019-04-27T20:31:32.554Z,21.73
2019-04-27T20:34:01.930Z,24.93
2019-04-27T20:36:32.146Z,25.37
2019-04-27T20:39:01.444Z,24.40
2019-04-27T20:41:31.908Z,24.90
2019-04-27T20:44:02.348Z,24.83
2019-04-27T20:46:31.798Z,24.33
2019-04-27T20:49:03.584Z,25.23
2019-04-27T20:51:53.093Z,26.53
2019-04-27T20:54:22.053Z,25.30
2019-04-27T20:56:53.577Z,27.80
2019-04-27T20:59:22.263Z,24.03
2019-04-27T21:01:51.963Z,23.47
2019-04-27T21:04:24.582Z,23.30
2019-04-27T21:06:58.321Z,23.17
2019-04-27T21:09:27.708Z,23.63
2019-04-27T21:11:57.010Z,24.17
2019-04-27T21:14:26.313Z,23.73
2019-04-27T21:16:55.634Z,24.77
2019-04-27T21:19:24.981Z,23.70
2019-04-27T21:21:54.336Z,26.10
2019-04-27T21:24:23.681Z,24.73
2019-04-27T21:26:52.995Z,23.47
2019-04-27T21:29:22.271Z,23.70
2019-04-27T21:31:52.053Z,23.60
2019-04-27T21:34:21.544Z,24.10
2019-04-27T21:36:51.160Z,23.30
2019-04-27T21:39:21.692Z,23.20
2019-04-27T21:41:51.742Z,24.07
2019-04-27T21:44:21.805Z,23.23
2019-04-27T21:46:51.953Z,23.10
2019-04-27T21:49:22.824Z,23.90
2019-04-27T21:52:03.615Z,23.47
2019-04-27T21:54:33.911Z,24.20
2019-04-27T21:57:03.257Z,23.27
2019-04-27T21:59:32.447Z,23.33
2019-04-27T22:02:03.379Z,22.37
2019-04-27T22:04:33.320Z,22.03
2019-04-27T22:07:02.749Z,22.17
2019-04-27T22:09:32.038Z,24.57
2019-04-27T22:12:02.515Z,24.47
2019-04-27T22:14:31.984Z,22.93
2019-04-27T22:17:01.307Z,24.40
2019-04-27T22:19:31.261Z,26.93
2019-04-27T22:22:02.313Z,28.77
2019-04-27T22:24:35.195Z,24.77
2019-04-27T22:27:04.610Z,24.33
2019-04-27T22:29:33.856Z,23.17
2019-04-27T22:32:03.287Z,24.90
2019-04-27T22:34:32.545Z,21.80
2019-04-27T22:37:02.669Z,23.03
2019-04-27T22:39:54.235Z,22.00
2019-04-27T22:42:41.635Z,22.27
2019-04-27T22:45:23.822Z,21.53
2019-04-27T22:47:53.059Z,23.70
2019-04-27T22:50:22.348Z,23.00
2019-04-27T22:52:51.606Z,22.43
2019-04-27T22:55:21.961Z,22.23
2019-04-27T22:58:01.643Z,22.03
2019-04-27T23:00:53.274Z,21.90
2019-04-27T23:03:31.268Z,22.50
2019-04-27T23:06:01.416Z,22.13
2019-04-27T23:08:31.247Z,22.87
2019-04-27T23:11:02.508Z,23.07
2019-04-27T23:13:31.697Z,23.83
2019-04-27T23:16:02.644Z,27.57
2019-04-27T23:18:31.961Z,24.13
2019-04-27T23:21:01.622Z,25.87
2019-04-27T23:23:31.104Z,24.60
2019-04-27T23:26:01.828Z,23.80
2019-04-27T23:28:31.464Z,23.80
2019-04-27T23:31:13.350Z,25.30
2019-04-27T23:33:45.944Z,23.70
2019-04-27T23:36:15.205Z,23.30
2019-04-27T23:38:44.456Z,24.00
2019-04-27T23:41:13.904Z,22.77
2019-04-27T23:43:43.165Z,22.63
2019-04-27T23:46:12.541Z,23.30
2019-04-27T23:48:42.067Z,24.37
2019-04-27T23:51:22.499Z,22.80
2019-04-27T23:53:51.777Z,22.83
2019-04-27T23:56:22.541Z,22.83
2019-04-27T23:58:51.894Z,23.17
